sensor_id;sensor_type;location;lat;lon;timestamp;P1;durP1;ratioP1;P2;durP2;ratioP2
8279;SDS011;8335;42.646;23.380;2022-08-01T00:01:11;4.07;;;2.97;;
8279;SDS011;8335;42.646;23.380;2022-08-01T00:03:38;6.00;;;3.55;;
8279;SDS011;8335;42.646;23.380;2022-08-01T00:06:06;6.85;;;3.25;;
8279;SDS011;8335;42.646;23.380;2022-08-01T00:08:33;3.50;;;3.00;;
8279;SDS011;8335;42.646;23.380;2022-08-01T00:11:00;3.05;;;2.70;;
8279;SDS011;8335;42.646;23.380;2022-08-01T00:13:27;3.25;;;2.95;;
8279;SDS011;8335;42.646;23.380;2022-08-01T00:15:53;4.00;;;2.83;;
8279;SDS011;8335;42.646;23.380;2022-08-01T00:18:20;3.13;;;2.83;;
8279;SDS011;8335;42.646;23.380;2022-08-01T00:20:47;2.90;;;2.60;;
8279;SDS011;8335;42.646;23.380;2022-08-01T00:23:15;2.75;;;2.45;;
8279;SDS011;8335;42.646;23.380;2022-08-01T00:25:42;4.93;;;2.85;;
8279;SDS011;8335;42.646;23.380;2022-08-01T00:28:08;2.92;;;2.63;;
8279;SDS011;8335;42.646;23.380;2022-08-01T00:30:35;4.10;;;2.50;;
8279;SDS011;8335;42.646;23.380;2022-08-01T00:33:02;3.00;;;2.60;;
8279;SDS011;8335;42.646;23.380;2022-08-01T00:35:29;5.20;;;2.80;;
8279;SDS011;8335;42.646;23.380;2022-08-01T00:37:56;3.10;;;2.80;;
8279;SDS011;8335;42.646;23.380;2022-08-01T00:40:24;3.78;;;3.47;;
8279;SDS011;8335;42.646;23.380;2022-08-01T00:42:51;5.20;;;4.57;;
8279;SDS011;8335;42.646;23.380;2022-08-01T00:45:17;5.28;;;3.83;;
8279;SDS011;8335;42.646;23.380;2022-08-01T00:47:44;6.50;;;4.97;;
8279;SDS011;8335;42.646;23.380;2022-08-01T00:50:11;6.22;;;5.22;;
8279;SDS011;8335;42.646;23.380;2022-08-01T00:52:38;5.82;;;5.22;;
8279;SDS011;8335;42.646;23.380;2022-08-01T00:55:06;6.50;;;5.88;;
8279;SDS011;8335;42.646;23.380;2022-08-01T00:57:35;6.20;;;5.70;;
8279;SDS011;8335;42.646;23.380;2022-08-01T01:00:03;7.45;;;5.78;;
8279;SDS011;8335;42.646;23.380;2022-08-01T01:02:31;6.57;;;5.93;;
8279;SDS011;8335;42.646;23.380;2022-08-01T01:04:58;6.70;;;5.75;;
8279;SDS011;8335;42.646;23.380;2022-08-01T01:07:29;6.68;;;6.07;;
8279;SDS011;8335;42.646;23.380;2022-08-01T01:10:03;6.70;;;5.97;;
8279;SDS011;8335;42.646;23.380;2022-08-01T01:12:38;8.00;;;6.97;;
8279;SDS011;8335;42.646;23.380;2022-08-01T01:15:14;7.90;;;7.20;;
8279;SDS011;8335;42.646;23.380;2022-08-01T01:17:45;8.65;;;7.82;;
8279;SDS011;8335;42.646;23.380;2022-08-01T01:20:15;11.10;;;7.40;;
8279;SDS011;8335;42.646;23.380;2022-08-01T01:22:50;8.60;;;7.72;;
8279;SDS011;8335;42.646;23.380;2022-08-01T01:25:33;8.55;;;7.60;;
8279;SDS011;8335;42.646;23.380;2022-08-01T01:28:15;8.73;;;7.90;;
8279;SDS011;8335;42.646;23.380;2022-08-01T01:30:49;9.75;;;7.60;;
8279;SDS011;8335;42.646;23.380;2022-08-01T01:33:18;9.00;;;7.95;;
8279;SDS011;8335;42.646;23.380;2022-08-01T01:35:47;8.43;;;7.63;;
8279;SDS011;8335;42.646;23.380;2022-08-01T01:38:18;8.07;;;7.28;;
8279;SDS011;8335;42.646;23.380;2022-08-01T01:40:48;10.88;;;8.38;;
8279;SDS011;8335;42.646;23.380;2022-08-01T01:43:16;8.88;;;8.07;;
8279;SDS011;8335;42.646;23.380;2022-08-01T01:45:45;8.98;;;7.93;;
8279;SDS011;8335;42.646;23.380;2022-08-01T01:48:15;7.68;;;6.97;;
8279;SDS011;8335;42.646;23.380;2022-08-01T01:50:45;7.75;;;6.72;;
8279;SDS011;8335;42.646;23.380;2022-08-01T01:53:16;8.13;;;7.28;;
8279;SDS011;8335;42.646;23.380;2022-08-01T01:55:47;9.80;;;7.88;;
8279;SDS011;8335;42.646;23.380;2022-08-01T01:58:18;10.55;;;7.45;;
8279;SDS011;8335;42.646;23.380;2022-08-01T02:00:46;8.05;;;7.15;;
8279;SDS011;8335;42.646;23.380;2022-08-01T02:03:17;7.75;;;7.05;;
8279;SDS011;8335;42.646;23.380;2022-08-01T02:05:44;8.85;;;6.97;;
8279;SDS011;8335;42.646;23.380;2022-08-01T02:08:14;8.20;;;7.43;;
8279;SDS011;8335;42.646;23.380;2022-08-01T02:10:41;8.30;;;7.50;;
8279;SDS011;8335;42.646;23.380;2022-08-01T02:13:31;8.75;;;7.72;;
8279;SDS011;8335;42.646;23.380;2022-08-01T02:16:00;7.82;;;7.10;;
8279;SDS011;8335;42.646;23.380;2022-08-01T02:18:28;7.22;;;6.20;;
8279;SDS011;8335;42.646;23.380;2022-08-01T02:20:55;7.07;;;6.28;;
8279;SDS011;8335;42.646;23.380;2022-08-01T02:23:25;7.22;;;5.82;;
8279;SDS011;8335;42.646;23.380;2022-08-01T02:25:54;6.88;;;5.43;;
8279;SDS011;8335;42.646;23.380;2022-08-01T02:28:24;6.68;;;6.00;;
8279;SDS011;8335;42.646;23.380;2022-08-01T02:30:56;8.13;;;5.63;;
8279;SDS011;8335;42.646;23.380;2022-08-01T02:33:30;7.20;;;5.47;;
8279;SDS011;8335;42.646;23.380;2022-08-01T02:36:03;8.93;;;4.93;;
8279;SDS011;8335;42.646;23.380;2022-08-01T02:38:32;5.35;;;4.78;;
8279;SDS011;8335;42.646;23.380;2022-08-01T02:41:02;6.07;;;4.57;;
8279;SDS011;8335;42.646;23.380;2022-08-01T02:43:33;8.85;;;5.40;;
8279;SDS011;8335;42.646;23.380;2022-08-01T02:46:02;4.97;;;4.57;;
8279;SDS011;8335;42.646;23.380;2022-08-01T02:48:34;8.63;;;4.95;;
8279;SDS011;8335;42.646;23.380;2022-08-01T02:51:05;6.17;;;5.17;;
8279;SDS011;8335;42.646;23.380;2022-08-01T02:53:34;5.55;;;5.05;;
8279;SDS011;8335;42.646;23.380;2022-08-01T02:56:04;6.28;;;5.10;;
8279;SDS011;8335;42.646;23.380;2022-08-01T02:58:32;6.57;;;5.32;;
8279;SDS011;8335;42.646;23.380;2022-08-01T03:01:01;6.20;;;5.40;;
8279;SDS011;8335;42.646;23.380;2022-08-01T03:03:29;5.30;;;4.78;;
8279;SDS011;8335;42.646;23.380;2022-08-01T03:05:58;4.53;;;4.13;;
8279;SDS011;8335;42.646;23.380;2022-08-01T03:08:26;4.28;;;3.70;;
8279;SDS011;8335;42.646;23.380;2022-08-01T03:10:56;7.57;;;4.35;;
8279;SDS011;8335;42.646;23.380;2022-08-01T03:13:25;7.78;;;4.78;;
8279;SDS011;8335;42.646;23.380;2022-08-01T03:15:55;6.78;;;4.35;;
8279;SDS011;8335;42.646;23.380;2022-08-01T03:18:24;6.37;;;4.67;;
8279;SDS011;8335;42.646;23.380;2022-08-01T03:20:54;7.15;;;4.50;;
8279;SDS011;8335;42.646;23.380;2022-08-01T03:23:24;7.22;;;4.55;;
8279;SDS011;8335;42.646;23.380;2022-08-01T03:25:53;6.45;;;4.75;;
8279;SDS011;8335;42.646;23.380;2022-08-01T03:28:20;7.38;;;4.90;;
8279;SDS011;8335;42.646;23.380;2022-08-01T03:30:48;5.88;;;4.32;;
8279;SDS011;8335;42.646;23.380;2022-08-01T03:33:17;5.20;;;4.65;;
8279;SDS011;8335;42.646;23.380;2022-08-01T03:35:45;4.88;;;4.40;;
8279;SDS011;8335;42.646;23.380;2022-08-01T03:38:16;6.32;;;4.68;;
8279;SDS011;8335;42.646;23.380;2022-08-01T03:40:47;6.30;;;4.60;;
8279;SDS011;8335;42.646;23.380;2022-08-01T03:43:18;6.00;;;4.82;;
8279;SDS011;8335;42.646;23.380;2022-08-01T03:45:49;6.15;;;4.40;;
8279;SDS011;8335;42.646;23.380;2022-08-01T03:48:18;12.82;;;4.93;;
8279;SDS011;8335;42.646;23.380;2022-08-01T03:50:50;6.80;;;4.00;;
8279;SDS011;8335;42.646;23.380;2022-08-01T03:53:18;3.75;;;3.45;;
8279;SDS011;8335;42.646;23.380;2022-08-01T03:55:49;4.68;;;3.40;;
8279;SDS011;8335;42.646;23.380;2022-08-01T03:58:18;3.88;;;3.22;;
8279;SDS011;8335;42.646;23.380;2022-08-01T04:00:46;3.45;;;3.15;;
8279;SDS011;8335;42.646;23.380;2022-08-01T04:03:14;3.40;;;2.90;;
8279;SDS011;8335;42.646;23.380;2022-08-01T04:05:42;4.45;;;3.10;;
8279;SDS011;8335;42.646;23.380;2022-08-01T04:08:09;4.63;;;3.00;;
8279;SDS011;8335;42.646;23.380;2022-08-01T04:10:44;2.88;;;2.63;;
8279;SDS011;8335;42.646;23.380;2022-08-01T04:13:13;3.70;;;3.20;;
8279;SDS011;8335;42.646;23.380;2022-08-01T04:15:39;3.22;;;2.78;;
8279;SDS011;8335;42.646;23.380;2022-08-01T04:18:06;4.55;;;2.75;;
8279;SDS011;8335;42.646;23.380;2022-08-01T04:20:33;8.82;;;3.55;;
8279;SDS011;8335;42.646;23.380;2022-08-01T04:23:00;3.20;;;2.88;;
8279;SDS011;8335;42.646;23.380;2022-08-01T04:25:28;5.85;;;2.53;;
8279;SDS011;8335;42.646;23.380;2022-08-01T04:27:59;4.03;;;2.80;;
8279;SDS011;8335;42.646;23.380;2022-08-01T04:30:31;7.65;;;2.80;;
8279;SDS011;8335;42.646;23.380;2022-08-01T04:33:01;2.97;;;2.72;;
8279;SDS011;8335;42.646;23.380;2022-08-01T04:35:33;7.30;;;2.40;;
8279;SDS011;8335;42.646;23.380;2022-08-01T04:38:01;5.38;;;2.88;;
8279;SDS011;8335;42.646;23.380;2022-08-01T04:40:29;5.07;;;3.00;;
8279;SDS011;8335;42.646;23.380;2022-08-01T04:42:56;3.88;;;2.58;;
8279;SDS011;8335;42.646;23.380;2022-08-01T04:45:23;3.20;;;2.45;;
8279;SDS011;8335;42.646;23.380;2022-08-01T04:47:52;4.70;;;2.83;;
8279;SDS011;8335;42.646;23.380;2022-08-01T04:50:19;7.95;;;3.22;;
8279;SDS011;8335;42.646;23.380;2022-08-01T04:52:47;4.10;;;2.55;;
8279;SDS011;8335;42.646;23.380;2022-08-01T04:55:13;3.22;;;2.40;;
8279;SDS011;8335;42.646;23.380;2022-08-01T04:57:43;4.43;;;2.92;;
8279;SDS011;8335;42.646;23.380;2022-08-01T05:00:11;3.60;;;2.97;;
8279;SDS011;8335;42.646;23.380;2022-08-01T05:02:39;8.07;;;3.90;;
8279;SDS011;8335;42.646;23.380;2022-08-01T05:05:07;4.50;;;3.38;;
8279;SDS011;8335;42.646;23.380;2022-08-01T05:07:35;4.85;;;2.95;;
8279;SDS011;8335;42.646;23.380;2022-08-01T05:10:03;5.75;;;3.33;;
8279;SDS011;8335;42.646;23.380;2022-08-01T05:12:30;5.88;;;3.08;;
8279;SDS011;8335;42.646;23.380;2022-08-01T05:14:57;7.13;;;3.45;;
8279;SDS011;8335;42.646;23.380;2022-08-01T05:17:24;4.78;;;3.10;;
8279;SDS011;8335;42.646;23.380;2022-08-01T05:19:51;4.25;;;3.30;;
8279;SDS011;8335;42.646;23.380;2022-08-01T05:22:19;7.97;;;3.22;;
8279;SDS011;8335;42.646;23.380;2022-08-01T05:24:47;7.13;;;3.25;;
8279;SDS011;8335;42.646;23.380;2022-08-01T05:27:14;8.35;;;3.15;;
8279;SDS011;8335;42.646;23.380;2022-08-01T05:29:40;6.93;;;3.10;;
8279;SDS011;8335;42.646;23.380;2022-08-01T05:32:07;5.93;;;3.58;;
8279;SDS011;8335;42.646;23.380;2022-08-01T05:34:34;4.72;;;3.30;;
8279;SDS011;8335;42.646;23.380;2022-08-01T05:37:01;6.45;;;4.05;;
8279;SDS011;8335;42.646;23.380;2022-08-01T05:39:29;9.00;;;3.70;;
8279;SDS011;8335;42.646;23.380;2022-08-01T05:41:56;8.93;;;3.60;;
8279;SDS011;8335;42.646;23.380;2022-08-01T05:44:23;8.23;;;3.80;;
8279;SDS011;8335;42.646;23.380;2022-08-01T05:46:50;7.15;;;3.95;;
8279;SDS011;8335;42.646;23.380;2022-08-01T05:49:17;8.73;;;4.75;;
8279;SDS011;8335;42.646;23.380;2022-08-01T05:51:43;12.38;;;6.63;;
8279;SDS011;8335;42.646;23.380;2022-08-01T05:54:10;5.85;;;3.22;;
8279;SDS011;8335;42.646;23.380;2022-08-01T05:56:38;8.55;;;3.75;;
8279;SDS011;8335;42.646;23.380;2022-08-01T05:59:05;8.40;;;3.47;;
8279;SDS011;8335;42.646;23.380;2022-08-01T06:01:32;7.75;;;2.83;;
8279;SDS011;8335;42.646;23.380;2022-08-01T06:03:58;4.93;;;2.88;;
8279;SDS011;8335;42.646;23.380;2022-08-01T06:06:25;4.63;;;2.90;;
8279;SDS011;8335;42.646;23.380;2022-08-01T06:08:52;5.85;;;2.83;;
8279;SDS011;8335;42.646;23.380;2022-08-01T06:11:19;3.10;;;2.28;;
8279;SDS011;8335;42.646;23.380;2022-08-01T06:13:47;5.80;;;2.67;;
8279;SDS011;8335;42.646;23.380;2022-08-01T06:16:13;5.43;;;2.75;;
8279;SDS011;8335;42.646;23.380;2022-08-01T06:18:40;4.20;;;2.55;;
8279;SDS011;8335;42.646;23.380;2022-08-01T06:21:07;3.65;;;2.10;;
8279;SDS011;8335;42.646;23.380;2022-08-01T06:23:34;2.20;;;2.00;;
8279;SDS011;8335;42.646;23.380;2022-08-01T06:26:00;8.57;;;6.43;;
8279;SDS011;8335;42.646;23.380;2022-08-01T06:28:27;6.68;;;2.03;;
8279;SDS011;8335;42.646;23.380;2022-08-01T06:30:55;4.70;;;2.10;;
8279;SDS011;8335;42.646;23.380;2022-08-01T06:33:23;3.10;;;1.92;;
8279;SDS011;8335;42.646;23.380;2022-08-01T06:35:50;5.07;;;2.05;;
8279;SDS011;8335;42.646;23.380;2022-08-01T06:38:17;4.40;;;1.85;;
8279;SDS011;8335;42.646;23.380;2022-08-01T06:40:43;5.55;;;2.45;;
8279;SDS011;8335;42.646;23.380;2022-08-01T06:43:10;3.45;;;1.80;;
8279;SDS011;8335;42.646;23.380;2022-08-01T06:45:37;3.63;;;2.30;;
8279;SDS011;8335;42.646;23.380;2022-08-01T06:48:05;4.15;;;2.15;;
8279;SDS011;8335;42.646;23.380;2022-08-01T06:50:32;8.23;;;2.13;;
8279;SDS011;8335;42.646;23.380;2022-08-01T06:53:00;2.75;;;2.03;;
8279;SDS011;8335;42.646;23.380;2022-08-01T06:55:27;4.80;;;2.10;;
8279;SDS011;8335;42.646;23.380;2022-08-01T06:57:54;6.57;;;2.42;;
8279;SDS011;8335;42.646;23.380;2022-08-01T07:00:22;4.90;;;2.28;;
8279;SDS011;8335;42.646;23.380;2022-08-01T07:02:50;4.53;;;2.30;;
8279;SDS011;8335;42.646;23.380;2022-08-01T07:05:19;3.03;;;2.15;;
8279;SDS011;8335;42.646;23.380;2022-08-01T07:07:45;5.30;;;2.30;;
8279;SDS011;8335;42.646;23.380;2022-08-01T07:10:12;3.38;;;2.40;;
8279;SDS011;8335;42.646;23.380;2022-08-01T07:12:39;4.28;;;2.30;;
8279;SDS011;8335;42.646;23.380;2022-08-01T07:15:07;4.20;;;2.55;;
8279;SDS011;8335;42.646;23.380;2022-08-01T07:17:36;4.95;;;2.20;;
8279;SDS011;8335;42.646;23.380;2022-08-01T07:20:05;3.80;;;2.50;;
8279;SDS011;8335;42.646;23.380;2022-08-01T07:22:34;5.53;;;2.28;;
8279;SDS011;8335;42.646;23.380;2022-08-01T07:25:01;5.22;;;2.50;;
8279;SDS011;8335;42.646;23.380;2022-08-01T07:27:29;3.00;;;2.67;;
8279;SDS011;8335;42.646;23.380;2022-08-01T07:29:56;7.35;;;2.70;;
8279;SDS011;8335;42.646;23.380;2022-08-01T07:32:22;4.85;;;2.38;;
8279;SDS011;8335;42.646;23.380;2022-08-01T07:34:49;6.93;;;2.50;;
8279;SDS011;8335;42.646;23.380;2022-08-01T07:37:16;4.78;;;2.50;;
8279;SDS011;8335;42.646;23.380;2022-08-01T07:39:44;4.50;;;2.15;;
8279;SDS011;8335;42.646;23.380;2022-08-01T07:42:10;4.03;;;2.15;;
8279;SDS011;8335;42.646;23.380;2022-08-01T07:44:37;4.88;;;2.50;;
8279;SDS011;8335;42.646;23.380;2022-08-01T07:47:04;4.72;;;2.20;;
8279;SDS011;8335;42.646;23.380;2022-08-01T07:49:31;6.13;;;2.47;;
8279;SDS011;8335;42.646;23.380;2022-08-01T07:51:58;4.63;;;2.05;;
8279;SDS011;8335;42.646;23.380;2022-08-01T07:54:25;3.60;;;2.13;;
8279;SDS011;8335;42.646;23.380;2022-08-01T07:56:54;4.65;;;1.98;;
8279;SDS011;8335;42.646;23.380;2022-08-01T07:59:21;6.97;;;2.45;;
8279;SDS011;8335;42.646;23.380;2022-08-01T08:01:48;3.33;;;2.30;;
8279;SDS011;8335;42.646;23.380;2022-08-01T08:04:15;5.47;;;2.30;;
8279;SDS011;8335;42.646;23.380;2022-08-01T08:06:42;3.53;;;2.47;;
8279;SDS011;8335;42.646;23.380;2022-08-01T08:09:09;4.40;;;2.22;;
8279;SDS011;8335;42.646;23.380;2022-08-01T08:11:36;3.47;;;2.20;;
8279;SDS011;8335;42.646;23.380;2022-08-01T08:14:04;5.80;;;2.70;;
8279;SDS011;8335;42.646;23.380;2022-08-01T08:16:31;7.45;;;2.47;;
8279;SDS011;8335;42.646;23.380;2022-08-01T08:18:57;4.97;;;2.40;;
8279;SDS011;8335;42.646;23.380;2022-08-01T08:21:24;2.67;;;2.00;;
8279;SDS011;8335;42.646;23.380;2022-08-01T08:23:52;6.43;;;2.67;;
8279;SDS011;8335;42.646;23.380;2022-08-01T08:26:36;2.83;;;2.40;;
8279;SDS011;8335;42.646;23.380;2022-08-01T08:29:05;4.75;;;2.70;;
8279;SDS011;8335;42.646;23.380;2022-08-01T08:31:31;4.93;;;2.20;;
8279;SDS011;8335;42.646;23.380;2022-08-01T08:33:58;5.22;;;2.60;;
8279;SDS011;8335;42.646;23.380;2022-08-01T08:36:25;8.30;;;2.10;;
8279;SDS011;8335;42.646;23.380;2022-08-01T08:38:51;3.45;;;2.00;;
8279;SDS011;8335;42.646;23.380;2022-08-01T08:41:18;3.88;;;2.67;;
8279;SDS011;8335;42.646;23.380;2022-08-01T08:43:45;4.93;;;2.47;;
8279;SDS011;8335;42.646;23.380;2022-08-01T08:46:13;6.75;;;2.90;;
8279;SDS011;8335;42.646;23.380;2022-08-01T08:48:41;2.75;;;2.25;;
8279;SDS011;8335;42.646;23.380;2022-08-01T08:51:09;5.13;;;2.90;;
8279;SDS011;8335;42.646;23.380;2022-08-01T08:53:38;4.55;;;2.60;;
8279;SDS011;8335;42.646;23.380;2022-08-01T08:56:08;2.88;;;2.60;;
8279;SDS011;8335;42.646;23.380;2022-08-01T08:58:38;4.43;;;2.38;;
8279;SDS011;8335;42.646;23.380;2022-08-01T09:01:05;7.20;;;2.10;;
8279;SDS011;8335;42.646;23.380;2022-08-01T09:03:33;3.30;;;1.95;;
8279;SDS011;8335;42.646;23.380;2022-08-01T09:06:00;3.30;;;2.25;;
8279;SDS011;8335;42.646;23.380;2022-08-01T09:08:27;2.20;;;2.00;;
8279;SDS011;8335;42.646;23.380;2022-08-01T09:10:54;2.28;;;1.98;;
8279;SDS011;8335;42.646;23.380;2022-08-01T09:13:21;5.22;;;2.22;;
8279;SDS011;8335;42.646;23.380;2022-08-01T09:15:48;4.53;;;2.22;;
8279;SDS011;8335;42.646;23.380;2022-08-01T09:18:27;3.33;;;2.10;;
8279;SDS011;8335;42.646;23.380;2022-08-01T09:21:10;2.20;;;2.00;;
8279;SDS011;8335;42.646;23.380;2022-08-01T09:23:41;4.78;;;1.83;;
8279;SDS011;8335;42.646;23.380;2022-08-01T09:26:10;3.45;;;2.50;;
8279;SDS011;8335;42.646;23.380;2022-08-01T09:28:38;5.45;;;2.17;;
8279;SDS011;8335;42.646;23.380;2022-08-01T09:31:05;7.35;;;2.38;;
8279;SDS011;8335;42.646;23.380;2022-08-01T09:33:47;4.82;;;2.60;;
8279;SDS011;8335;42.646;23.380;2022-08-01T09:36:17;4.38;;;2.10;;
8279;SDS011;8335;42.646;23.380;2022-08-01T09:38:45;6.40;;;2.45;;
8279;SDS011;8335;42.646;23.380;2022-08-01T09:41:13;4.78;;;1.92;;
8279;SDS011;8335;42.646;23.380;2022-08-01T09:43:40;4.60;;;2.13;;
8279;SDS011;8335;42.646;23.380;2022-08-01T09:46:14;4.43;;;2.10;;
8279;SDS011;8335;42.646;23.380;2022-08-01T09:48:53;3.28;;;2.17;;
8279;SDS011;8335;42.646;23.380;2022-08-01T09:51:28;2.47;;;1.95;;
8279;SDS011;8335;42.646;23.380;2022-08-01T09:53:56;6.40;;;2.20;;
8279;SDS011;8335;42.646;23.380;2022-08-01T09:56:25;4.32;;;2.30;;
8279;SDS011;8335;42.646;23.380;2022-08-01T09:58:53;2.97;;;2.00;;
8279;SDS011;8335;42.646;23.380;2022-08-01T10:01:21;4.35;;;2.03;;
8279;SDS011;8335;42.646;23.380;2022-08-01T10:03:59;4.68;;;2.25;;
8279;SDS011;8335;42.646;23.380;2022-08-01T10:06:32;4.32;;;3.28;;
8279;SDS011;8335;42.646;23.380;2022-08-01T10:09:00;3.17;;;2.63;;
8279;SDS011;8335;42.646;23.380;2022-08-01T10:11:27;4.43;;;1.95;;
8279;SDS011;8335;42.646;23.380;2022-08-01T10:13:56;2.72;;;2.10;;
8279;SDS011;8335;42.646;23.380;2022-08-01T10:16:25;4.47;;;2.70;;
8279;SDS011;8335;42.646;23.380;2022-08-01T10:18:54;3.28;;;2.00;;
8279;SDS011;8335;42.646;23.380;2022-08-01T10:21:23;3.85;;;2.78;;
8279;SDS011;8335;42.646;23.380;2022-08-01T10:23:53;2.38;;;2.17;;
8279;SDS011;8335;42.646;23.380;2022-08-01T10:26:21;2.20;;;2.03;;
8279;SDS011;8335;42.646;23.380;2022-08-01T10:28:51;6.28;;;2.65;;
8279;SDS011;8335;42.646;23.380;2022-08-01T10:31:20;3.03;;;2.28;;
8279;SDS011;8335;42.646;23.380;2022-08-01T10:33:47;4.45;;;2.55;;
8279;SDS011;8335;42.646;23.380;2022-08-01T10:36:16;4.57;;;2.30;;
8279;SDS011;8335;42.646;23.380;2022-08-01T10:38:45;3.00;;;2.58;;
8279;SDS011;8335;42.646;23.380;2022-08-01T10:41:14;3.88;;;2.15;;
8279;SDS011;8335;42.646;23.380;2022-08-01T10:43:42;5.18;;;2.40;;
8279;SDS011;8335;42.646;23.380;2022-08-01T10:46:09;5.25;;;2.30;;
8279;SDS011;8335;42.646;23.380;2022-08-01T10:48:39;4.75;;;2.42;;
8279;SDS011;8335;42.646;23.380;2022-08-01T10:51:11;3.00;;;2.20;;
8279;SDS011;8335;42.646;23.380;2022-08-01T10:53:45;3.00;;;2.28;;
8279;SDS011;8335;42.646;23.380;2022-08-01T10:56:14;4.32;;;2.70;;
8279;SDS011;8335;42.646;23.380;2022-08-01T10:58:42;2.63;;;2.17;;
8279;SDS011;8335;42.646;23.380;2022-08-01T11:01:17;2.22;;;2.00;;
8279;SDS011;8335;42.646;23.380;2022-08-01T11:04:01;3.47;;;2.10;;
8279;SDS011;8335;42.646;23.380;2022-08-01T11:06:39;6.00;;;2.22;;
8279;SDS011;8335;42.646;23.380;2022-08-01T11:09:23;4.65;;;2.10;;
8279;SDS011;8335;42.646;23.380;2022-08-01T11:12:01;4.63;;;2.17;;
8279;SDS011;8335;42.646;23.380;2022-08-01T11:14:33;3.15;;;2.25;;
8279;SDS011;8335;42.646;23.380;2022-08-01T11:20:08;4.68;;;2.28;;
8279;SDS011;8335;42.646;23.380;2022-08-01T11:31:44;4.47;;;3.13;;
8279;SDS011;8335;42.646;23.380;2022-08-01T11:34:11;4.15;;;2.63;;
8279;SDS011;8335;42.646;23.380;2022-08-01T11:36:37;3.05;;;2.58;;
8279;SDS011;8335;42.646;23.380;2022-08-01T11:39:11;2.25;;;2.10;;
8279;SDS011;8335;42.646;23.380;2022-08-01T11:41:42;6.07;;;2.60;;
8279;SDS011;8335;42.646;23.380;2022-08-01T11:44:12;3.78;;;2.53;;
8279;SDS011;8335;42.646;23.380;2022-08-01T11:46:50;2.80;;;2.35;;
8279;SDS011;8335;42.646;23.380;2022-08-01T11:49:26;4.07;;;2.65;;
8279;SDS011;8335;42.646;23.380;2022-08-01T11:52:10;3.95;;;2.47;;
8279;SDS011;8335;42.646;23.380;2022-08-01T11:54:39;4.35;;;2.58;;
8279;SDS011;8335;42.646;23.380;2022-08-01T11:57:07;2.55;;;2.13;;
8279;SDS011;8335;42.646;23.380;2022-08-01T11:59:35;2.60;;;2.22;;
8279;SDS011;8335;42.646;23.380;2022-08-01T12:02:05;5.30;;;2.70;;
8279;SDS011;8335;42.646;23.380;2022-08-01T12:04:53;3.90;;;2.58;;
8279;SDS011;8335;42.646;23.380;2022-08-01T12:07:21;3.08;;;2.50;;
8279;SDS011;8335;42.646;23.380;2022-08-01T12:09:55;3.00;;;2.70;;
8279;SDS011;8335;42.646;23.380;2022-08-01T12:12:23;4.15;;;2.53;;
8279;SDS011;8335;42.646;23.380;2022-08-01T12:14:52;5.30;;;2.67;;
8279;SDS011;8335;42.646;23.380;2022-08-01T12:17:28;3.90;;;2.80;;
8279;SDS011;8335;42.646;23.380;2022-08-01T12:19:56;4.18;;;2.60;;
8279;SDS011;8335;42.646;23.380;2022-08-01T12:22:23;2.92;;;2.40;;
8279;SDS011;8335;42.646;23.380;2022-08-01T12:24:50;5.82;;;2.45;;
8279;SDS011;8335;42.646;23.380;2022-08-01T12:27:24;5.55;;;3.28;;
8279;SDS011;8335;42.646;23.380;2022-08-01T12:29:53;4.80;;;3.05;;
8279;SDS011;8335;42.646;23.380;2022-08-01T12:32:21;7.45;;;3.20;;
8279;SDS011;8335;42.646;23.380;2022-08-01T12:34:54;2.65;;;2.38;;
8279;SDS011;8335;42.646;23.380;2022-08-01T12:37:21;3.03;;;2.83;;
8279;SDS011;8335;42.646;23.380;2022-08-01T12:39:48;4.65;;;2.88;;
8279;SDS011;8335;42.646;23.380;2022-08-01T12:42:15;6.63;;;2.60;;
8279;SDS011;8335;42.646;23.380;2022-08-01T12:44:43;4.40;;;3.08;;
8279;SDS011;8335;42.646;23.380;2022-08-01T12:47:12;8.88;;;2.97;;
8279;SDS011;8335;42.646;23.380;2022-08-01T12:49:41;3.60;;;2.70;;
8279;SDS011;8335;42.646;23.380;2022-08-01T12:52:11;3.92;;;3.08;;
8279;SDS011;8335;42.646;23.380;2022-08-01T12:57:28;3.70;;;2.85;;
8279;SDS011;8335;42.646;23.380;2022-08-01T13:00:06;3.83;;;2.63;;
8279;SDS011;8335;42.646;23.380;2022-08-01T13:02:34;3.95;;;3.10;;
8279;SDS011;8335;42.646;23.380;2022-08-01T13:05:02;3.20;;;2.90;;
8279;SDS011;8335;42.646;23.380;2022-08-01T13:07:38;4.28;;;2.75;;
8279;SDS011;8335;42.646;23.380;2022-08-01T13:10:09;3.05;;;2.75;;
8279;SDS011;8335;42.646;23.380;2022-08-01T13:12:38;3.10;;;2.80;;
8279;SDS011;8335;42.646;23.380;2022-08-01T13:15:17;5.60;;;3.78;;
8279;SDS011;8335;42.646;23.380;2022-08-01T13:17:57;3.30;;;2.90;;
8279;SDS011;8335;42.646;23.380;2022-08-01T13:20:25;4.05;;;3.58;;
8279;SDS011;8335;42.646;23.380;2022-08-01T13:22:55;4.15;;;3.58;;
8279;SDS011;8335;42.646;23.380;2022-08-01T13:25:46;5.40;;;3.38;;
8279;SDS011;8335;42.646;23.380;2022-08-01T13:28:17;3.30;;;2.78;;
8279;SDS011;8335;42.646;23.380;2022-08-01T13:30:52;5.72;;;3.10;;
8279;SDS011;8335;42.646;23.380;2022-08-01T13:33:25;5.60;;;3.15;;
8279;SDS011;8335;42.646;23.380;2022-08-01T13:35:53;5.97;;;3.00;;
8279;SDS011;8335;42.646;23.380;2022-08-01T13:38:23;2.67;;;2.47;;
8279;SDS011;8335;42.646;23.380;2022-08-01T13:41:03;3.45;;;2.50;;
8279;SDS011;8335;42.646;23.380;2022-08-01T13:43:30;4.38;;;3.08;;
8279;SDS011;8335;42.646;23.380;2022-08-01T13:45:57;6.05;;;3.05;;
8279;SDS011;8335;42.646;23.380;2022-08-01T13:48:23;5.03;;;3.33;;
8279;SDS011;8335;42.646;23.380;2022-08-01T13:50:50;4.97;;;2.90;;
8279;SDS011;8335;42.646;23.380;2022-08-01T13:53:17;8.45;;;3.20;;
8279;SDS011;8335;42.646;23.380;2022-08-01T13:55:45;5.65;;;3.05;;
8279;SDS011;8335;42.646;23.380;2022-08-01T13:58:12;3.13;;;2.80;;
8279;SDS011;8335;42.646;23.380;2022-08-01T14:00:38;3.78;;;2.60;;
8279;SDS011;8335;42.646;23.380;2022-08-01T14:03:05;3.00;;;2.80;;
8279;SDS011;8335;42.646;23.380;2022-08-01T14:05:34;3.25;;;2.90;;
8279;SDS011;8335;42.646;23.380;2022-08-01T14:08:01;4.20;;;3.10;;
8279;SDS011;8335;42.646;23.380;2022-08-01T14:10:28;3.42;;;3.10;;
8279;SDS011;8335;42.646;23.380;2022-08-01T14:12:56;5.50;;;2.60;;
8279;SDS011;8335;42.646;23.380;2022-08-01T14:15:23;5.97;;;2.83;;
8279;SDS011;8335;42.646;23.380;2022-08-01T14:17:51;4.47;;;3.03;;
8279;SDS011;8335;42.646;23.380;2022-08-01T14:20:18;7.47;;;2.83;;
8279;SDS011;8335;42.646;23.380;2022-08-01T14:22:45;4.93;;;2.65;;
8279;SDS011;8335;42.646;23.380;2022-08-01T14:25:11;5.43;;;3.00;;
8279;SDS011;8335;42.646;23.380;2022-08-01T14:27:38;3.78;;;2.70;;
8279;SDS011;8335;42.646;23.380;2022-08-01T14:30:08;4.10;;;3.00;;
8279;SDS011;8335;42.646;23.380;2022-08-01T14:32:36;3.40;;;2.58;;
8279;SDS011;8335;42.646;23.380;2022-08-01T14:35:03;3.92;;;3.00;;
8279;SDS011;8335;42.646;23.380;2022-08-01T14:37:31;6.35;;;3.55;;
8279;SDS011;8335;42.646;23.380;2022-08-01T14:39:59;5.97;;;2.80;;
8279;SDS011;8335;42.646;23.380;2022-08-01T14:42:29;2.75;;;2.55;;
8279;SDS011;8335;42.646;23.380;2022-08-01T14:44:56;4.50;;;2.72;;
8279;SDS011;8335;42.646;23.380;2022-08-01T14:47:24;2.75;;;2.53;;
8279;SDS011;8335;42.646;23.380;2022-08-01T14:49:51;4.07;;;2.70;;
8279;SDS011;8335;42.646;23.380;2022-08-01T14:52:18;3.65;;;2.70;;
8279;SDS011;8335;42.646;23.380;2022-08-01T14:54:45;3.88;;;2.55;;
8279;SDS011;8335;42.646;23.380;2022-08-01T14:57:12;2.90;;;2.60;;
8279;SDS011;8335;42.646;23.380;2022-08-01T14:59:43;5.32;;;2.80;;
8279;SDS011;8335;42.646;23.380;2022-08-01T15:02:10;2.72;;;2.47;;
8279;SDS011;8335;42.646;23.380;2022-08-01T15:04:39;2.60;;;2.40;;
8279;SDS011;8335;42.646;23.380;2022-08-01T15:07:05;3.05;;;2.58;;
8279;SDS011;8335;42.646;23.380;2022-08-01T15:09:32;5.65;;;3.00;;
8279;SDS011;8335;42.646;23.380;2022-08-01T15:11:59;3.47;;;2.42;;
8279;SDS011;8335;42.646;23.380;2022-08-01T15:14:26;5.13;;;2.65;;
8279;SDS011;8335;42.646;23.380;2022-08-01T15:17:10;3.92;;;3.30;;
8279;SDS011;8335;42.646;23.380;2022-08-01T15:19:37;2.70;;;2.50;;
8279;SDS011;8335;42.646;23.380;2022-08-01T15:22:05;4.53;;;2.47;;
8279;SDS011;8335;42.646;23.380;2022-08-01T15:24:31;3.17;;;2.88;;
8279;SDS011;8335;42.646;23.380;2022-08-01T15:26:58;3.53;;;2.80;;